Conditions Actuelle
Epars
Des nuages



Pression
29.97 (inHG) - 1014.92 (mb)
Visibilité

10.0 (km) - 6.2 (miles)
   Température
4  °C
Température
0  °C
Point de Rosée
75  %
 Humidité
   Vitesse du Vent
16  km/h
9  kts
10  mph
4.5  m/s
   Direction du Vent
N
45°
E
90°
135°
S
180°
225°
O
270°
315°
 50°

Nord Est
   Données D'Aéroport
LFBG
Cognac-Châteaubernard (BA 709) Air Base
Metar :LFBG 071700Z AUTO 05009KT 9999 SCT018 04/00 Q1015 NOSIG
07-12-2022 18:00
   Informations de métar brut
Le METAR brut est le format le plus courant au monde pour la transmission de données météorologiques d'observation. Il est hautement standardisé par l’Organisation de l’aviation civile internationale (OACI), ce qui lui permet d’être compris dans la plupart des pays du monde.
   API Information
Données fournies par
https://www.checkwx.com/weather/LFBG

Météo aéronautique fournissant des rapports météorologiques METAR, TAF, AIRMET, SIGMET et OUTLOOK
   © Info
CSS/SVG/PHP les scripts ont été développés pa weather34.com pour une utilisation dans le modèle weather34 © 2015-2022

Informations sur le guide fournies par Metar-Wikipedia